General Aviation Weather

Text Reports

Enter one or more of the following location identifiers separated by a space:

Zip Code, Four-Character ICAO or Three-Character IATA airport codes.

METAR - Aviation Routine Weather Report
KEMP - Emporia, Kansas
Updated at 6:53 PM GMT on December 20, 2014 (12:53 PM CST):
METAR KEMP 201853Z AUTO 20015KT 10SM CLR 08/04 A3012 RMK AO2 SLP206 T00830039
TAF - Terminal Area Forecast
KEMP - Emporia, Kansas
Updated at 6:53 PM GMT on December 20, 2014 (12:53 PM CST):
No TAF is currently available for this location.
Decoded:
No decoded TAF is available.
PIREP - Pilot Weather Report
KEMP - Emporia, Kansas
Updated at 6:53 PM GMT on December 20, 2014 (12:53 PM CST):
No PIREP is currently available for this location.
AIRMET - Airmens Meteorological Information
KEMP - Emporia, Kansas
Updated at 6:53 PM GMT on December 20, 2014 (12:53 PM CST):
No AIRMET is currently available for this location.
SIGMET - Significant Meteorological Information
KEMP - Emporia, Kansas
Updated at 6:53 PM GMT on December 20, 2014 (12:53 PM CST):
No SIGMET is currently available for this location.
NOTAM - Notice to Airmen
KEMP - Emporia, Kansas
Updated at 6:53 PM GMT on December 20, 2014 (12:53 PM CST):
No NOTAM is currently available for this location.
Forecast Area
KEMP - Emporia, Kansas
Updated at 6:53 PM GMT on December 20, 2014 (12:53 PM CST):
No NOTAM is currently available for this location.
Aviation Weather Maps